createdAt,value
2023-04-04T00:00:11.466Z,78.01
2023-04-04T00:02:39.238Z,78.62
2023-04-04T00:05:08.576Z,79.08
2023-04-04T00:07:36.305Z,79.89
2023-04-04T00:10:05.849Z,79.91
2023-04-04T00:12:33.452Z,80.63
2023-04-04T00:15:01.363Z,79.99
2023-04-04T00:17:28.935Z,80.73
2023-04-04T00:19:57.119Z,80.21
2023-04-04T00:22:24.742Z,80.30
2023-04-04T00:24:52.311Z,80.04
2023-04-04T00:27:21.517Z,79.72
2023-04-04T00:29:49.126Z,80.47
2023-04-04T00:32:16.812Z,80.55
2023-04-04T00:34:44.375Z,80.14
2023-04-04T00:37:13.282Z,79.93
2023-04-04T00:39:41.008Z,79.66
2023-04-04T00:42:08.973Z,79.43
2023-04-04T00:44:37.939Z,79.76
2023-04-04T00:47:05.656Z,79.56
2023-04-04T00:49:34.421Z,78.95
2023-04-04T00:52:02.099Z,79.50
2023-04-04T00:54:30.989Z,79.83
2023-04-04T00:56:58.576Z,78.99
2023-04-04T00:59:27.756Z,79.03
2023-04-04T01:01:57.192Z,78.64
2023-04-04T01:04:24.771Z,79.21
2023-04-04T01:06:52.608Z,79.39
2023-04-04T01:09:20.232Z,79.40
2023-04-04T01:11:47.809Z,79.37
2023-04-04T01:14:15.470Z,78.92
2023-04-04T01:16:43.113Z,79.27
2023-04-04T01:19:17.701Z,79.06
2023-04-04T01:21:47.127Z,78.83
2023-04-04T01:24:17.780Z,78.87
2023-04-04T01:26:46.890Z,79.20
2023-04-04T01:29:14.493Z,79.57
2023-04-04T01:31:47.467Z,79.44
2023-04-04T01:34:19.099Z,79.23
2023-04-04T01:36:50.642Z,78.22
2023-04-04T01:39:24.157Z,78.53
2023-04-04T01:41:53.152Z,78.39
2023-04-04T01:44:20.846Z,78.64
2023-04-04T01:46:48.446Z,78.34
2023-04-04T01:49:16.513Z,78.67
2023-04-04T01:51:44.774Z,78.56
2023-04-04T01:54:12.428Z,78.21
2023-04-04T01:56:40.086Z,78.06
2023-04-04T01:59:09.095Z,78.65
2023-04-04T02:01:36.891Z,78.46
2023-04-04T02:04:04.567Z,78.65
2023-04-04T02:06:32.244Z,78.87
2023-04-04T02:08:59.853Z,78.35
2023-04-04T02:11:27.612Z,78.18
2023-04-04T02:13:55.142Z,78.33
2023-04-04T02:16:24.138Z,78.31
2023-04-04T02:18:51.756Z,78.33
2023-04-04T02:21:19.279Z,78.33
2023-04-04T02:23:46.790Z,78.25
2023-04-04T02:26:14.379Z,78.69
2023-04-04T02:28:41.919Z,78.16
2023-04-04T02:31:09.668Z,77.84
2023-04-04T02:33:38.589Z,78.35
2023-04-04T02:36:06.774Z,77.97
2023-04-04T02:38:34.559Z,77.92
2023-04-04T02:41:02.078Z,78.06
2023-04-04T02:43:29.563Z,77.68
2023-04-04T02:45:57.698Z,77.73
2023-04-04T02:48:27.336Z,77.72
2023-04-04T02:50:56.255Z,77.76
2023-04-04T02:53:23.880Z,78.04
2023-04-04T02:55:51.622Z,77.84
2023-04-04T02:58:19.170Z,77.98
2023-04-04T03:00:47.593Z,77.82
2023-04-04T03:03:15.732Z,77.88
2023-04-04T03:05:43.473Z,78.52
2023-04-04T03:08:12.384Z,77.96
2023-04-04T03:10:40.142Z,78.31
2023-04-04T03:13:07.817Z,77.68
2023-04-04T03:15:35.584Z,77.50
2023-04-04T03:18:03.793Z,77.07
2023-04-04T03:20:31.433Z,76.68
2023-04-04T03:22:59.005Z,77.09
2023-04-04T03:25:27.909Z,77.27
2023-04-04T03:27:55.582Z,77.49
2023-04-04T03:30:23.396Z,77.71
2023-04-04T03:32:51.260Z,77.70
2023-04-04T03:35:18.851Z,77.27
2023-04-04T03:37:46.427Z,77.19
2023-04-04T03:40:14.280Z,77.52
2023-04-04T03:42:43.165Z,77.19
2023-04-04T03:45:11.667Z,77.42
2023-04-04T03:47:39.784Z,76.90
2023-04-04T03:50:08.218Z,77.04
2023-04-04T03:52:38.762Z,76.75
2023-04-04T03:55:07.457Z,76.66
2023-04-04T03:57:35.079Z,76.95
2023-04-04T04:00:04.448Z,77.13
2023-04-04T04:02:32.112Z,76.58
2023-04-04T04:04:59.789Z,76.93
2023-04-04T04:07:27.341Z,76.70
2023-04-04T04:09:54.869Z,76.20
2023-04-04T04:12:22.483Z,76.37
2023-04-04T04:14:50.038Z,76.51
2023-04-04T04:17:18.927Z,76.87
2023-04-04T04:19:46.665Z,76.73
2023-04-04T04:22:14.191Z,76.94
2023-04-04T04:24:41.701Z,76.34
2023-04-04T04:27:09.238Z,77.58
2023-04-04T04:29:37.472Z,77.32
2023-04-04T04:32:05.054Z,77.02
2023-04-04T04:34:33.999Z,76.81
2023-04-04T04:37:01.570Z,77.28
2023-04-04T04:39:29.145Z,76.58
2023-04-04T04:41:57.006Z,76.76
2023-04-04T04:44:24.632Z,76.57
2023-04-04T04:46:52.340Z,76.86
2023-04-04T04:49:20.022Z,76.92
2023-04-04T04:51:49.122Z,77.27
2023-04-04T04:54:16.708Z,77.04
2023-04-04T04:56:44.423Z,77.22
2023-04-04T04:59:12.807Z,76.99
2023-04-04T05:01:40.460Z,77.01
2023-04-04T05:04:08.142Z,76.85
2023-04-04T05:06:35.665Z,76.53
2023-04-04T05:09:04.784Z,76.23
2023-04-04T05:11:32.315Z,77.06
2023-04-04T05:14:00.301Z,76.64
2023-04-04T05:16:27.906Z,76.91
2023-04-04T05:18:55.455Z,77.05
2023-04-04T05:21:23.517Z,76.74
2023-04-04T05:23:51.345Z,76.36
2023-04-04T05:26:20.262Z,76.48
2023-04-04T05:28:47.903Z,76.70
2023-04-04T05:31:15.635Z,76.80
2023-04-04T05:33:43.208Z,76.71
2023-04-04T05:36:12.632Z,76.54
2023-04-04T05:38:40.241Z,76.42
2023-04-04T05:41:07.818Z,76.48
2023-04-04T05:43:36.861Z,75.75
2023-04-04T05:46:04.532Z,75.77
2023-04-04T05:48:32.128Z,75.77
2023-04-04T05:50:59.939Z,76.10
2023-04-04T05:53:27.714Z,76.09
2023-04-04T05:55:55.273Z,75.11
2023-04-04T05:58:23.120Z,75.14
2023-04-04T06:00:52.478Z,75.11
2023-04-04T06:03:22.023Z,75.50
2023-04-04T06:05:52.282Z,74.96
2023-04-04T06:08:20.004Z,75.18
2023-04-04T06:10:47.729Z,74.89
2023-04-04T06:13:15.708Z,74.56
2023-04-04T06:15:43.465Z,74.58
2023-04-04T06:18:12.872Z,74.63
2023-04-04T06:20:41.574Z,74.00
2023-04-04T06:23:10.126Z,74.00
2023-04-04T06:25:37.913Z,74.39
2023-04-04T06:28:06.167Z,74.72
2023-04-04T06:30:37.464Z,73.89
2023-04-04T06:33:06.010Z,74.01
2023-04-04T06:35:35.395Z,73.51
2023-04-04T06:38:04.155Z,73.79
2023-04-04T06:40:31.813Z,73.79
2023-04-04T06:42:59.454Z,72.28
2023-04-04T06:45:27.585Z,71.74
2023-04-04T06:47:56.667Z,71.36
2023-04-04T06:50:24.604Z,71.02
2023-04-04T06:52:55.562Z,70.19
2023-04-04T06:55:23.386Z,68.81
2023-04-04T06:57:51.630Z,69.17
2023-04-04T07:00:25.322Z,68.55
2023-04-04T07:02:59.127Z,69.58
2023-04-04T07:05:26.895Z,67.73
2023-04-04T07:07:56.884Z,68.13
2023-04-04T07:10:25.533Z,68.00
2023-04-04T07:12:53.300Z,68.46
2023-04-04T07:15:21.201Z,67.00
2023-04-04T07:17:49.480Z,66.88
2023-04-04T07:20:17.401Z,67.36
2023-04-04T07:22:45.371Z,67.12
2023-04-04T07:25:14.279Z,67.14
2023-04-04T07:27:42.309Z,66.09
2023-04-04T07:30:11.224Z,65.88
2023-04-04T07:32:39.292Z,66.90
2023-04-04T07:35:07.985Z,65.57
2023-04-04T07:37:38.188Z,65.81
2023-04-04T07:40:08.685Z,65.92
2023-04-04T07:42:37.940Z,65.38
2023-04-04T07:45:06.287Z,64.86
2023-04-04T07:47:33.952Z,65.62
2023-04-04T07:50:01.628Z,64.83
2023-04-04T07:52:29.534Z,65.59
2023-04-04T07:54:57.219Z,65.24
2023-04-04T07:57:25.167Z,65.10
2023-04-04T07:59:54.254Z,64.58
2023-04-04T08:02:22.380Z,64.51
2023-04-04T08:04:50.250Z,64.13
2023-04-04T08:07:18.015Z,62.51
2023-04-04T08:09:45.704Z,62.72
2023-04-04T08:12:13.258Z,64.18
2023-04-04T08:14:40.839Z,62.41
2023-04-04T08:17:09.869Z,63.58
2023-04-04T08:19:37.632Z,62.97
2023-04-04T08:22:05.556Z,61.72
2023-04-04T08:24:33.106Z,60.97
2023-04-04T08:27:04.977Z,59.62
2023-04-04T08:29:34.369Z,60.90
2023-04-04T08:32:02.215Z,60.17
2023-04-04T08:34:31.988Z,60.03
2023-04-04T08:36:59.945Z,60.97
2023-04-04T08:39:28.074Z,60.29
2023-04-04T08:42:03.640Z,59.65
2023-04-04T08:44:32.064Z,60.46
2023-04-04T08:47:01.320Z,59.35
2023-04-04T08:49:33.540Z,59.15
2023-04-04T08:52:03.820Z,58.59
2023-04-04T08:54:32.154Z,58.21
2023-04-04T08:56:59.751Z,58.30
2023-04-04T08:59:28.247Z,58.75
2023-04-04T09:02:02.563Z,58.64
2023-04-04T09:04:31.849Z,58.07
2023-04-04T09:07:00.363Z,56.68
2023-04-04T09:09:28.867Z,57.95
2023-04-04T09:11:56.558Z,57.36
2023-04-04T09:14:27.210Z,56.41
2023-04-04T09:16:54.878Z,57.16
2023-04-04T09:19:24.480Z,55.70
2023-04-04T09:21:55.115Z,56.54
2023-04-04T09:24:22.777Z,57.23
2023-04-04T09:26:52.057Z,56.55
2023-04-04T09:29:20.545Z,56.02
2023-04-04T09:31:49.528Z,56.27
2023-04-04T09:34:19.385Z,55.32
2023-04-04T09:36:47.644Z,55.58
2023-04-04T09:39:17.470Z,54.79
2023-04-04T09:41:46.019Z,55.17
2023-04-04T09:44:14.043Z,55.56
2023-04-04T09:46:41.867Z,55.95
2023-04-04T09:49:13.167Z,55.99
2023-04-04T09:51:42.586Z,55.58
2023-04-04T09:54:18.625Z,56.96
2023-04-04T09:56:52.368Z,55.72
2023-04-04T09:59:20.081Z,55.30
2023-04-04T10:01:51.102Z,55.42
2023-04-04T10:04:19.603Z,55.04
2023-04-04T10:06:47.648Z,53.60
2023-04-04T10:09:16.362Z,54.41
2023-04-04T10:11:44.037Z,54.68
2023-04-04T10:14:12.988Z,53.67
2023-04-04T10:16:45.990Z,52.68
2023-04-04T10:19:15.366Z,53.06
2023-04-04T10:21:43.359Z,53.35
2023-04-04T10:24:11.453Z,53.67
2023-04-04T10:26:39.820Z,54.38
2023-04-04T10:29:07.443Z,54.26
2023-04-04T10:31:40.912Z,54.04
2023-04-04T10:34:17.390Z,54.08
2023-04-04T10:36:46.426Z,52.97
2023-04-04T10:39:15.955Z,52.71
2023-04-04T10:41:43.778Z,53.08
2023-04-04T10:44:16.264Z,52.70
2023-04-04T10:46:48.352Z,51.79
2023-04-04T10:49:16.396Z,54.40
2023-04-04T10:51:55.045Z,52.23
2023-04-04T10:54:23.679Z,53.50
2023-04-04T10:56:51.516Z,52.42
2023-04-04T10:59:19.207Z,51.75
2023-04-04T11:01:57.515Z,52.00
2023-04-04T11:04:33.998Z,52.09
2023-04-04T11:07:11.873Z,52.22
2023-04-04T11:09:55.826Z,51.75
2023-04-04T11:12:36.144Z,51.99
2023-04-04T11:15:11.708Z,51.79
2023-04-04T11:17:54.725Z,51.56
2023-04-04T11:20:23.853Z,51.38
2023-04-04T11:22:52.520Z,52.27
2023-04-04T11:25:38.638Z,52.44
2023-04-04T11:28:08.984Z,51.27
2023-04-04T11:30:44.833Z,51.69
2023-04-04T11:33:15.320Z,52.41
2023-04-04T11:35:48.383Z,51.94
2023-04-04T11:38:16.974Z,51.43
2023-04-04T11:40:54.356Z,50.75
2023-04-04T11:43:22.354Z,50.82
2023-04-04T11:45:50.738Z,50.58
2023-04-04T11:48:20.970Z,49.95
2023-04-04T11:50:52.724Z,51.15
2023-04-04T11:53:20.886Z,50.46
2023-04-04T11:55:50.253Z,50.71
2023-04-04T11:58:19.322Z,49.71
2023-04-04T12:00:47.776Z,50.90
2023-04-04T12:03:18.521Z,50.28
2023-04-04T12:05:47.871Z,49.71
2023-04-04T12:08:15.791Z,49.66
2023-04-04T12:10:44.317Z,50.25
2023-04-04T12:13:13.061Z,49.52
2023-04-04T12:15:40.787Z,49.92
2023-04-04T12:18:09.283Z,50.44
2023-04-04T12:20:39.525Z,49.20
2023-04-04T12:23:09.497Z,49.43
2023-04-04T12:25:39.976Z,48.69
2023-04-04T12:28:08.423Z,50.17
2023-04-04T12:30:36.244Z,49.62
2023-04-04T12:33:04.037Z,48.19
2023-04-04T12:35:31.924Z,48.43
2023-04-04T12:38:03.819Z,49.65
2023-04-04T12:40:38.082Z,49.04
2023-04-04T12:43:07.370Z,49.54
2023-04-04T12:45:38.996Z,49.18
2023-04-04T12:48:14.455Z,49.25
2023-04-04T12:50:52.946Z,48.21
2023-04-04T12:53:29.083Z,49.79
2023-04-04T12:56:03.213Z,48.84
2023-04-04T12:58:30.977Z,48.68
2023-04-04T13:01:01.298Z,47.09
2023-04-04T13:03:29.473Z,47.85
2023-04-04T13:05:59.669Z,48.24
2023-04-04T13:08:27.317Z,47.50
2023-04-04T13:11:02.014Z,48.74
2023-04-04T13:13:34.219Z,48.84
2023-04-04T13:16:02.560Z,49.28
2023-04-04T13:18:35.471Z,48.35
2023-04-04T13:21:03.075Z,48.37
2023-04-04T13:23:30.743Z,47.79
2023-04-04T13:25:59.752Z,47.13
2023-04-04T13:28:27.652Z,47.52
2023-04-04T13:30:55.765Z,47.69
2023-04-04T13:33:23.447Z,47.66
2023-04-04T13:35:51.406Z,47.53
2023-04-04T13:38:19.092Z,48.24
2023-04-04T13:40:46.828Z,47.72
2023-04-04T13:43:16.101Z,48.07
2023-04-04T13:45:44.279Z,47.89
2023-04-04T13:48:11.899Z,48.78
2023-04-04T13:50:41.567Z,47.78
2023-04-04T13:53:13.271Z,46.85
2023-04-04T13:55:52.061Z,46.36
2023-04-04T13:58:27.014Z,45.82
2023-04-04T14:00:56.428Z,46.37
2023-04-04T14:03:25.325Z,46.84
2023-04-04T14:05:54.080Z,47.97
2023-04-04T14:08:22.147Z,47.06
2023-04-04T14:10:50.288Z,46.32
2023-04-04T14:13:18.597Z,47.36
2023-04-04T14:15:50.423Z,46.87
2023-04-04T14:18:19.009Z,46.87
2023-04-04T14:20:47.200Z,47.58
2023-04-04T14:23:15.516Z,47.05
2023-04-04T14:25:44.169Z,47.33
2023-04-04T14:28:15.457Z,47.10
2023-04-04T14:30:44.083Z,46.47
2023-04-04T14:33:16.436Z,46.18
2023-04-04T14:35:44.604Z,46.82
2023-04-04T14:38:13.495Z,46.93
2023-04-04T14:40:41.138Z,45.22
2023-04-04T14:43:08.719Z,44.87
2023-04-04T14:45:36.644Z,45.94
2023-04-04T14:48:04.249Z,46.21
2023-04-04T14:50:33.244Z,46.18
2023-04-04T14:53:00.833Z,46.31
2023-04-04T14:55:28.615Z,46.60
2023-04-04T15:00:27.083Z,47.70
2023-04-04T15:02:54.935Z,47.50
2023-04-04T15:05:23.017Z,47.32
2023-04-04T15:07:52.044Z,46.82
2023-04-04T15:10:19.744Z,47.11
2023-04-04T15:12:47.458Z,46.09
2023-04-04T15:15:15.685Z,47.30
2023-04-04T15:17:43.373Z,46.62
2023-04-04T15:20:12.301Z,47.89
2023-04-04T15:22:41.524Z,47.61
2023-04-04T15:25:11.161Z,47.90
2023-04-04T15:27:38.714Z,48.04
2023-04-04T15:30:07.187Z,47.43
2023-04-04T15:32:34.815Z,47.75
2023-04-04T15:35:04.342Z,47.56
2023-04-04T15:37:31.965Z,47.71
2023-04-04T15:39:59.508Z,47.40
2023-04-04T15:42:29.241Z,47.25
2023-04-04T15:44:57.149Z,47.39
2023-04-04T15:47:24.747Z,47.52
2023-04-04T15:49:52.427Z,48.17
2023-04-04T15:52:20.040Z,47.95
2023-04-04T15:54:47.825Z,48.28
2023-04-04T15:57:15.711Z,48.46
2023-04-04T15:59:44.678Z,48.21
2023-04-04T16:02:12.257Z,47.97
2023-04-04T16:04:39.884Z,47.88
2023-04-04T16:07:07.607Z,47.38
2023-04-04T16:09:36.117Z,48.04
2023-04-04T16:12:03.898Z,47.92
2023-04-04T16:14:31.645Z,47.56
2023-04-04T16:17:02.686Z,48.11
2023-04-04T16:19:30.528Z,49.08
2023-04-04T16:21:58.958Z,49.12
2023-04-04T16:24:27.425Z,49.01
2023-04-04T16:26:55.064Z,48.85
2023-04-04T16:29:22.795Z,48.63
2023-04-04T16:31:50.531Z,48.57
2023-04-04T16:34:19.569Z,49.14
2023-04-04T16:36:47.364Z,48.22
2023-04-04T16:39:15.114Z,48.52
2023-04-04T16:41:42.709Z,49.18
2023-04-04T16:44:12.198Z,48.95
2023-04-04T16:46:40.475Z,49.53
2023-04-04T16:49:08.364Z,49.39
2023-04-04T16:51:37.310Z,49.22
2023-04-04T16:54:05.019Z,49.21
2023-04-04T16:56:32.731Z,49.13
2023-04-04T16:59:00.424Z,50.06
2023-04-04T17:01:27.970Z,50.46
2023-04-04T17:03:55.588Z,50.38
2023-04-04T17:06:23.216Z,50.25
2023-04-04T17:08:52.146Z,50.55
2023-04-04T17:11:19.683Z,50.67
2023-04-04T17:13:47.534Z,50.95
2023-04-04T17:16:15.216Z,51.00
2023-04-04T17:18:43.776Z,51.54
2023-04-04T17:21:11.352Z,52.14
2023-04-04T17:23:38.910Z,52.50
2023-04-04T17:26:07.828Z,52.07
2023-04-04T17:28:35.572Z,52.07
2023-04-04T17:31:03.250Z,52.17
2023-04-04T17:33:31.073Z,52.39
2023-04-04T17:35:58.664Z,52.65
2023-04-04T17:38:26.579Z,52.93
2023-04-04T17:40:54.224Z,52.89
2023-04-04T17:43:23.154Z,53.71
2023-04-04T17:45:50.827Z,54.53
2023-04-04T17:48:18.412Z,54.58
2023-04-04T17:50:46.016Z,55.05
2023-04-04T17:53:13.577Z,55.47
2023-04-04T17:55:41.257Z,55.74
2023-04-04T17:58:08.917Z,55.98
2023-04-04T18:00:38.039Z,56.11
2023-04-04T18:03:06.050Z,56.74
2023-04-04T18:05:34.450Z,57.24
2023-04-04T18:08:04.721Z,57.34
2023-04-04T18:10:32.760Z,57.31
2023-04-04T18:13:01.267Z,57.58
2023-04-04T18:15:29.380Z,57.52
2023-04-04T18:17:58.429Z,57.01
2023-04-04T18:20:34.583Z,57.57
2023-04-04T18:23:03.947Z,57.96
2023-04-04T18:25:31.632Z,58.26
2023-04-04T18:27:59.675Z,58.50
2023-04-04T18:30:27.861Z,58.33
2023-04-04T18:32:58.263Z,58.01
2023-04-04T18:35:26.290Z,58.58
2023-04-04T18:37:53.837Z,58.92
2023-04-04T18:40:21.523Z,58.80
2023-04-04T18:42:49.262Z,59.47
2023-04-04T18:45:18.269Z,59.39
2023-04-04T18:47:45.975Z,59.73
2023-04-04T18:50:15.598Z,60.17
2023-04-04T18:52:43.249Z,60.04
2023-04-04T18:55:11.882Z,60.44
2023-04-04T18:57:39.651Z,60.62
2023-04-04T19:00:08.748Z,61.09
2023-04-04T19:02:37.555Z,61.07
2023-04-04T19:05:05.857Z,61.49
2023-04-04T19:07:35.681Z,61.53
2023-04-04T19:10:05.467Z,61.54
2023-04-04T19:12:33.021Z,61.75
2023-04-04T19:15:01.337Z,61.88
2023-04-04T19:17:29.645Z,62.02
2023-04-04T19:19:58.061Z,62.19
2023-04-04T19:22:25.651Z,61.84
2023-04-04T19:24:54.789Z,62.46
2023-04-04T19:27:22.359Z,61.98
2023-04-04T19:29:49.895Z,62.11
2023-04-04T19:32:19.643Z,62.27
2023-04-04T19:34:47.857Z,63.00
2023-04-04T19:37:17.516Z,63.02
2023-04-04T19:39:45.365Z,63.38
2023-04-04T19:42:14.549Z,63.25
2023-04-04T19:44:42.503Z,63.42
2023-04-04T19:47:10.918Z,63.61
2023-04-04T19:49:39.600Z,63.79
2023-04-04T19:52:08.625Z,64.19
2023-04-04T19:54:41.559Z,64.39
2023-04-04T19:57:16.857Z,64.80
2023-04-04T19:59:59.365Z,65.15
2023-04-04T20:02:50.031Z,64.96
2023-04-04T20:05:53.582Z,65.28
2023-04-04T20:08:21.339Z,64.99
2023-04-04T20:10:49.737Z,64.81
2023-04-04T20:13:19.946Z,65.63
2023-04-04T20:16:09.003Z,65.34
2023-04-04T20:18:37.774Z,64.20
2023-04-04T20:21:10.386Z,64.35
2023-04-04T20:23:43.861Z,64.49
2023-04-04T20:26:14.377Z,65.12
2023-04-04T20:28:44.976Z,65.79
2023-04-04T20:31:17.079Z,65.51
2023-04-04T20:33:45.278Z,66.09
2023-04-04T20:36:32.478Z,65.91
2023-04-04T20:39:00.280Z,66.08
2023-04-04T20:41:28.176Z,65.93
2023-04-04T20:43:58.193Z,65.83
2023-04-04T20:46:27.019Z,66.48
2023-04-04T20:48:56.630Z,66.36
2023-04-04T20:51:31.809Z,66.71
2023-04-04T20:54:00.903Z,66.78
2023-04-04T20:56:47.233Z,66.43
2023-04-04T20:59:40.445Z,66.70
2023-04-04T21:02:10.689Z,66.42
2023-04-04T21:04:38.842Z,66.38
2023-04-04T21:07:06.838Z,66.68
2023-04-04T21:09:34.679Z,67.07
2023-04-04T21:12:02.718Z,67.24
2023-04-04T21:14:37.876Z,67.34
2023-04-04T21:17:07.004Z,67.46
2023-04-04T21:19:34.538Z,66.95
2023-04-04T21:22:02.142Z,67.17
2023-04-04T21:24:34.052Z,66.97
2023-04-04T21:27:04.394Z,67.31
2023-04-04T21:29:31.968Z,68.33
2023-04-04T21:32:02.738Z,67.84
2023-04-04T21:34:30.906Z,67.70
2023-04-04T21:37:02.680Z,68.07
2023-04-04T21:39:31.085Z,67.80
2023-04-04T21:42:00.047Z,68.43
2023-04-04T21:44:27.818Z,68.71
2023-04-04T21:46:55.642Z,68.80
2023-04-04T21:49:25.001Z,68.96
2023-04-04T21:51:52.771Z,69.12
2023-04-04T21:54:20.688Z,69.18
2023-04-04T21:56:48.430Z,69.26
2023-04-04T21:59:16.128Z,69.23
2023-04-04T22:01:43.891Z,69.35
2023-04-04T22:04:11.541Z,69.45
2023-04-04T22:06:40.628Z,69.67
2023-04-04T22:09:08.273Z,69.53
2023-04-04T22:11:38.833Z,68.97
2023-04-04T22:14:07.021Z,69.41
2023-04-04T22:16:38.951Z,69.59
2023-04-04T22:19:11.588Z,69.70
2023-04-04T22:21:46.613Z,69.57
2023-04-04T22:24:17.543Z,69.67
2023-04-04T22:26:45.908Z,68.86
2023-04-04T22:29:13.761Z,69.82
2023-04-04T22:31:41.566Z,70.05
2023-04-04T22:34:09.429Z,70.06
2023-04-04T22:36:38.641Z,69.95
2023-04-04T22:39:07.673Z,70.18
2023-04-04T22:41:35.420Z,70.24
2023-04-04T22:44:03.065Z,70.07
2023-04-04T22:46:31.562Z,70.64
2023-04-04T22:49:06.350Z,70.75
2023-04-04T22:51:42.724Z,70.47
2023-04-04T22:54:12.894Z,70.47
2023-04-04T22:56:40.574Z,71.10
2023-04-04T22:59:08.271Z,70.85
2023-04-04T23:01:35.982Z,70.27
2023-04-04T23:04:03.771Z,70.46
2023-04-04T23:06:31.438Z,70.48
2023-04-04T23:08:59.302Z,70.46
2023-04-04T23:11:28.233Z,70.29
2023-04-04T23:13:57.090Z,69.93
2023-04-04T23:16:26.141Z,69.73
2023-04-04T23:18:54.048Z,70.64
2023-04-04T23:21:21.926Z,70.83
2023-04-04T23:23:49.868Z,70.92
2023-04-04T23:26:17.404Z,71.64
2023-04-04T23:28:46.375Z,71.78
2023-04-04T23:31:14.737Z,71.99
2023-04-04T23:33:42.912Z,72.24
2023-04-04T23:36:10.599Z,71.73
2023-04-04T23:38:38.222Z,71.33
2023-04-04T23:41:06.007Z,71.41
2023-04-04T23:43:35.461Z,72.00
2023-04-04T23:46:04.552Z,72.15
2023-04-04T23:48:32.527Z,72.56
2023-04-04T23:51:01.599Z,72.45
2023-04-04T23:53:29.517Z,72.51
2023-04-04T23:55:57.153Z,72.84
2023-04-04T23:58:24.843Z,72.98
